Time;durP1;ratioP1;P1;durP2;ratioP2;P2;SDS_P1;SDS_P2;PMS_P1;PMS_P2;Temp;Humidity;BMP_temperature;BMP_pressure;BME280_temperature;BME280_humidity;BME280_pressure;Samples;Min_cycle;Max_cycle;Signal;HPM_P1;HPM_P2
2022/03/30 00:01:25;;;;;;;0.30;0.30;;;12.30;60.40;;;;;;5034972;28;20039;-75
2022/03/30 00:03:51;;;;;;;0.20;0.20;;;12.00;61.50;;;;;;5035235;28;20025;-75
2022/03/30 00:06:17;;;;;;;2.33;1.85;;;11.60;63.40;;;;;;5018175;28;20515;-75
2022/03/30 00:08:43;;;;;;;0.25;0.25;;;11.10;64.90;;;;;;5052994;28;20049;-75
2022/03/30 00:11:10;;;;;;;0.20;0.20;;;11.00;65.70;;;;;;5052822;28;20150;-75
2022/03/30 00:13:37;;;;;;;0.45;0.45;;;11.00;66.10;;;;;;5018721;28;20396;-77
2022/03/30 00:16:04;;;;;;;0.60;0.60;;;10.90;66.20;;;;;;5034623;28;20092;-76
2022/03/30 00:18:30;;;;;;;0.65;0.65;;;10.90;66.60;;;;;;5052633;28;20044;-77
2022/03/30 00:20:56;;;;;;;0.20;0.20;;;10.90;66.90;;;;;;5034786;28;20387;-77
2022/03/30 00:23:22;;;;;;;0.22;0.22;;;10.80;66.70;;;;;;5052538;28;20028;-76
2022/03/30 00:25:47;;;;;;;0.35;0.35;;;10.80;66.50;;;;;;5052767;28;20025;-76
2022/03/30 00:28:13;;;;;;;0.63;0.63;;;11.00;65.90;;;;;;5018045;28;20025;-76
2022/03/30 00:30:39;;;;;;;0.20;0.20;;;11.00;66.20;;;;;;5034643;28;20029;-76
2022/03/30 00:33:05;;;;;;;0.57;0.57;;;11.10;64.90;;;;;;5034542;28;20035;-77
2022/03/30 00:35:31;;;;;;;0.50;0.50;;;11.30;64.00;;;;;;5052052;28;20025;-77
2022/03/30 00:37:57;;;;;;;5.00;4.63;;;11.10;63.90;;;;;;5034439;28;20017;-77
2022/03/30 00:40:23;;;;;;;0.60;0.60;;;11.30;64.00;;;;;;5034562;28;20025;-77
2022/03/30 00:42:49;;;;;;;2.20;2.00;;;11.20;63.80;;;;;;5034444;28;20099;-76
2022/03/30 00:45:23;;;;;;;1.65;1.48;;;11.20;63.80;;;;;;5052340;28;20025;-76
2022/03/30 00:47:50;;;;;;;0.95;0.95;;;11.00;64.80;;;;;;5034289;28;20032;-77
2022/03/30 00:50:18;;;;;;;0.65;0.65;;;10.90;64.80;;;;;;5034526;28;20028;-76
2022/03/30 00:52:46;;;;;;;0.20;0.20;;;10.80;65.50;;;;;;5034421;28;20499;-77
2022/03/30 00:55:13;;;;;;;0.30;0.30;;;10.70;65.60;;;;;;5034350;28;20025;-76
2022/03/30 00:57:41;;;;;;;0.30;0.30;;;10.80;66.10;;;;;;5034166;28;20029;-77
2022/03/30 01:00:09;;;;;;;0.20;0.20;;;10.60;66.20;;;;;;5018077;28;20380;-77
2022/03/30 01:02:39;;;;;;;0.75;0.75;;;10.70;66.10;;;;;;5056506;28;20507;-77
2022/03/30 01:05:06;;;;;;;0.30;0.30;;;10.80;65.30;;;;;;5038361;28;20488;-77
2022/03/30 01:07:32;;;;;;;0.20;0.20;;;10.80;65.00;;;;;;5055026;28;20507;-76
2022/03/30 01:09:58;;;;;;;0.70;0.70;;;10.90;64.90;;;;;;5021933;28;20029;-77
2022/03/30 01:12:25;;;;;;;2.42;2.30;;;10.90;64.60;;;;;;5056145;28;20035;-76
2022/03/30 01:14:52;;;;;;;0.20;0.20;;;10.80;64.50;;;;;;5038372;28;20099;-77
2022/03/30 01:17:19;;;;;;;1.85;1.67;;;10.60;65.50;;;;;;5021258;28;20037;-77
2022/03/30 01:19:45;;;;;;;0.20;0.20;;;10.50;66.20;;;;;;5038283;28;20021;-77
2022/03/30 01:22:10;;;;;;;0.20;0.20;;;10.60;66.20;;;;;;5038060;28;20036;-77
2022/03/30 01:24:36;;;;;;;0.20;0.20;;;10.80;65.70;;;;;;5037942;28;20095;-77
2022/03/30 01:27:03;;;;;;;0.73;0.73;;;11.00;64.60;;;;;;5021458;28;20021;-77
2022/03/30 01:32:25;;;;;;;6.22;1.75;;;10.90;64.20;;;;;;5056228;28;20021;-77
2022/03/30 01:34:55;;;;;;;1.77;0.40;;;10.70;65.60;;;;;;5055677;28;20033;-77
2022/03/30 01:37:23;;;;;;;0.20;0.20;;;10.70;65.60;;;;;;5037907;28;20037;-77
2022/03/30 01:39:49;;;;;;;0.30;0.30;;;10.60;66.30;;;;;;5055590;28;20017;-77
2022/03/30 01:42:15;;;;;;;0.20;0.20;;;10.70;66.10;;;;;;5038009;28;20361;-76
2022/03/30 01:44:41;;;;;;;0.22;0.22;;;10.70;65.30;;;;;;5037923;28;20033;-77
2022/03/30 01:47:08;;;;;;;0.43;0.43;;;10.60;65.10;;;;;;5021422;28;20181;-77
2022/03/30 01:49:34;;;;;;;0.30;0.30;;;10.50;65.50;;;;;;5055499;28;20056;-77
2022/03/30 01:52:00;;;;;;;0.20;0.20;;;10.70;65.30;;;;;;5055660;28;20029;-77
2022/03/30 01:54:28;;;;;;;1.02;1.02;;;10.80;64.90;;;;;;5055454;28;20123;-77
2022/03/30 01:56:55;;;;;;;0.20;0.20;;;10.80;65.30;;;;;;5020934;28;20056;-77
2022/03/30 01:59:22;;;;;;;0.80;0.80;;;10.70;66.00;;;;;;5020893;28;20369;-76
2022/03/30 02:01:48;;;;;;;1.85;0.88;;;10.50;66.10;;;;;;5037789;28;20025;-77
2022/03/30 02:04:14;;;;;;;0.65;0.65;;;10.40;66.60;;;;;;5037519;28;20418;-77
2022/03/30 02:06:40;;;;;;;0.20;0.20;;;10.30;67.00;;;;;;5037319;28;20114;-77
2022/03/30 02:09:07;;;;;;;0.20;0.20;;;10.40;67.30;;;;;;5021059;28;20495;-76
2022/03/30 02:11:34;;;;;;;0.40;0.40;;;10.50;67.80;;;;;;5037112;28;20503;-77
2022/03/30 02:14:01;;;;;;;0.63;0.63;;;10.30;68.70;;;;;;5036712;28;20449;-77
2022/03/30 02:16:27;;;;;;;0.32;0.32;;;10.30;69.40;;;;;;5037163;28;20102;-77
2022/03/30 02:18:53;;;;;;;0.20;0.20;;;10.30;68.70;;;;;;5037106;28;20025;-77
2022/03/30 02:21:19;;;;;;;0.20;0.20;;;10.30;69.00;;;;;;5054932;28;20021;-77
2022/03/30 02:23:46;;;;;;;1.45;0.95;;;10.30;68.40;;;;;;5055218;28;20032;-77
2022/03/30 02:26:15;;;;;;;0.47;0.47;;;10.30;67.50;;;;;;5020502;28;20025;-77
2022/03/30 02:28:51;;;;;;;1.20;0.68;;;10.40;66.50;;;;;;5037139;28;20021;-77
2022/03/30 02:31:20;;;;;;;0.60;0.55;;;10.30;67.20;;;;;;5037180;28;20029;-77
2022/03/30 02:33:47;;;;;;;0.20;0.20;;;10.10;67.30;;;;;;5037254;28;20033;-76
2022/03/30 02:36:14;;;;;;;2.67;0.70;;;9.90;68.60;;;;;;5036733;28;20496;-76
2022/03/30 02:38:40;;;;;;;0.20;0.20;;;9.70;69.30;;;;;;5020325;28;20112;-76
2022/03/30 02:41:06;;;;;;;0.28;0.28;;;9.90;68.70;;;;;;5054615;28;20499;-77
2022/03/30 02:43:33;;;;;;;0.30;0.30;;;10.10;67.50;;;;;;5037067;28;20357;-77
2022/03/30 02:45:59;;;;;;;0.20;0.20;;;10.40;67.00;;;;;;5053255;28;20033;-77
2022/03/30 02:48:28;;;;;;;1.48;0.68;;;10.40;66.10;;;;;;5036884;28;20025;-77
2022/03/30 02:51:00;;;;;;;3.10;2.25;;;10.10;66.90;;;;;;5036550;28;20029;-76
2022/03/30 02:53:26;;;;;;;2.15;2.05;;;9.70;67.90;;;;;;5020060;28;20043;-76
2022/03/30 02:55:52;;;;;;;0.20;0.20;;;9.60;69.20;;;;;;5036467;28;20025;-77
2022/03/30 02:58:21;;;;;;;0.30;0.30;;;9.70;68.80;;;;;;5020020;28;20048;-77
2022/03/30 03:00:47;;;;;;;0.20;0.20;;;10.10;67.50;;;;;;5054547;28;20031;-77
2022/03/30 03:03:13;;;;;;;1.67;1.55;;;10.30;66.30;;;;;;5036662;28;20025;-77
2022/03/30 03:05:41;;;;;;;0.25;0.25;;;10.40;65.70;;;;;;5036149;28;20029;-77
2022/03/30 03:08:09;;;;;;;0.20;0.20;;;10.60;65.30;;;;;;5052841;28;20025;-76
2022/03/30 03:10:36;;;;;;;0.20;0.20;;;10.70;64.70;;;;;;5036505;28;20048;-76
2022/03/30 03:13:03;;;;;;;0.20;0.20;;;10.90;64.20;;;;;;5019735;28;20021;-77
2022/03/30 03:15:34;;;;;;;0.20;0.20;;;10.90;63.80;;;;;;5035987;28;20078;-77
2022/03/30 03:18:01;;;;;;;13.07;4.78;;;11.00;63.40;;;;;;5036025;28;20052;-77
2022/03/30 03:20:28;;;;;;;0.20;0.20;;;11.00;63.50;;;;;;5019287;28;20028;-77
2022/03/30 03:22:54;;;;;;;0.30;0.30;;;11.10;63.30;;;;;;5035938;28;20540;-77
2022/03/30 03:25:20;;;;;;;0.50;0.50;;;11.00;62.90;;;;;;5018360;28;20031;-76
2022/03/30 03:27:47;;;;;;;0.20;0.20;;;10.70;63.90;;;;;;5035941;28;20025;-76
2022/03/30 03:30:14;;;;;;;0.20;0.20;;;10.70;65.00;;;;;;5053762;28;20021;-76
2022/03/30 03:32:41;;;;;;;0.20;0.20;;;10.50;65.70;;;;;;5035702;28;20429;-77
2022/03/30 03:35:09;;;;;;;0.30;0.30;;;10.50;66.40;;;;;;5019244;28;20021;-77
2022/03/30 03:37:38;;;;;;;0.80;0.80;;;10.40;67.10;;;;;;5053632;28;20385;-77
2022/03/30 03:40:06;;;;;;;2.42;1.05;;;10.50;67.20;;;;;;5035632;28;20028;-76
2022/03/30 03:42:32;;;;;;;0.30;0.30;;;10.50;67.00;;;;;;5019455;28;20021;-77
2022/03/30 03:44:58;;;;;;;0.20;0.20;;;10.40;67.40;;;;;;5019444;28;20393;-77
2022/03/30 03:47:24;;;;;;;0.17;0.17;;;10.20;67.90;;;;;;5053275;28;20078;-77
2022/03/30 03:49:50;;;;;;;1.15;1.10;;;10.20;67.30;;;;;;5019144;28;20031;-76
2022/03/30 03:52:16;;;;;;;0.10;0.10;;;10.10;66.90;;;;;;5019037;28;20116;-77
2022/03/30 03:54:42;;;;;;;0.20;0.20;;;10.10;67.50;;;;;;5035294;28;20373;-77
2022/03/30 03:57:08;;;;;;;0.43;0.43;;;10.00;66.20;;;;;;5035104;28;20082;-77
2022/03/30 03:59:35;;;;;;;0.20;0.20;;;10.10;66.60;;;;;;5053188;28;20020;-77
2022/03/30 04:02:04;;;;;;;0.25;0.25;;;10.10;66.70;;;;;;5035303;28;20028;-76
2022/03/30 04:04:30;;;;;;;7.20;6.30;;;10.30;66.10;;;;;;5035181;28;20504;-77
2022/03/30 04:06:56;;;;;;;0.55;0.55;;;10.10;66.20;;;;;;5035273;28;20025;-77
2022/03/30 04:09:22;;;;;;;0.20;0.20;;;10.20;66.70;;;;;;5018737;28;20021;-76
2022/03/30 04:11:47;;;;;;;40.20;4.75;;;10.30;66.30;;;;;;5034787;28;20032;-77
2022/03/30 04:14:15;;;;;;;0.50;0.50;;;10.20;66.30;;;;;;5035051;28;20029;-76
2022/03/30 04:16:42;;;;;;;2.50;0.73;;;10.20;66.90;;;;;;5066392;22;20044;-72
2022/03/30 04:19:08;;;;;;;0.30;0.30;;;10.00;67.50;;;;;;5051606;28;20412;-72
2022/03/30 04:21:34;;;;;;;0.60;0.60;;;9.90;67.80;;;;;;5052555;28;20035;-72
2022/03/30 04:23:59;;;;;;;3.00;1.10;;;9.90;68.40;;;;;;5052228;28;20060;-72
2022/03/30 04:26:25;;;;;;;2.40;1.77;;;9.70;68.80;;;;;;5051079;28;20021;-72
2022/03/30 04:28:51;;;;;;;1.60;1.50;;;9.70;68.90;;;;;;5034271;28;20029;-72
2022/03/30 04:31:17;;;;;;;0.20;0.20;;;9.60;69.40;;;;;;5052133;28;20032;-72
2022/03/30 04:33:42;;;;;;;0.30;0.30;;;9.50;69.10;;;;;;5052219;28;20033;-72
2022/03/30 04:36:08;;;;;;;0.20;0.20;;;9.50;69.20;;;;;;5051635;28;20029;-73
2022/03/30 04:38:34;;;;;;;0.65;0.65;;;9.60;69.40;;;;;;5051809;28;20029;-72
2022/03/30 04:41:00;;;;;;;0.68;0.68;;;9.60;68.60;;;;;;5052148;28;20025;-72
2022/03/30 04:43:27;;;;;;;0.28;0.28;;;9.60;68.50;;;;;;5052030;28;20299;-72
2022/03/30 04:45:54;;;;;;;0.35;0.35;;;9.60;67.90;;;;;;5051799;28;20434;-73
2022/03/30 04:48:21;;;;;;;0.20;0.20;;;9.60;68.10;;;;;;5052100;28;20017;-72
2022/03/30 04:50:46;;;;;;;0.30;0.30;;;9.60;68.60;;;;;;5051881;28;20075;-72
2022/03/30 04:53:12;;;;;;;0.22;0.22;;;9.60;68.60;;;;;;5051792;28;20053;-72
2022/03/30 04:55:39;;;;;;;0.20;0.20;;;9.60;68.30;;;;;;5051620;28;20075;-72
2022/03/30 04:58:05;;;;;;;0.50;0.50;;;9.50;68.70;;;;;;5051970;28;20028;-73
2022/03/30 05:00:32;;;;;;;2.95;1.02;;;9.50;68.30;;;;;;5051889;28;20017;-72
2022/03/30 05:02:57;;;;;;;3.67;1.95;;;9.40;68.80;;;;;;5051833;28;20055;-72
2022/03/30 05:05:23;;;;;;;6.60;1.08;;;9.20;69.00;;;;;;5051678;28;20049;-72
2022/03/30 05:07:49;;;;;;;0.28;0.28;;;9.20;69.10;;;;;;5051572;28;20079;-72
2022/03/30 05:10:16;;;;;;;0.22;0.22;;;9.10;69.60;;;;;;5051808;28;20150;-72
2022/03/30 05:12:42;;;;;;;0.50;0.50;;;9.00;70.30;;;;;;5034011;28;20112;-73
2022/03/30 05:15:53;;;;;;;0.20;0.20;;;9.00;70.30;;;;;;5034192;28;20110;-72
2022/03/30 05:18:37;;;;;;;0.60;0.60;;;9.10;70.20;;;;;;5026181;28;20550;-72
2022/03/30 05:21:03;;;;;;;0.45;0.45;;;9.20;69.60;;;;;;5051680;28;20312;-72
2022/03/30 05:23:29;;;;;;;0.20;0.20;;;9.30;69.30;;;;;;5051541;28;20025;-72
2022/03/30 05:25:54;;;;;;;0.30;0.30;;;9.40;69.10;;;;;;5051505;28;20155;-72
2022/03/30 05:28:20;;;;;;;0.32;0.32;;;9.50;68.80;;;;;;5051747;28;20064;-72
2022/03/30 05:30:46;;;;;;;0.52;0.52;;;9.40;69.20;;;;;;5051506;28;20078;-72
2022/03/30 05:33:12;;;;;;;0.65;0.65;;;9.50;69.10;;;;;;5051485;28;20017;-72
2022/03/30 05:35:38;;;;;;;0.57;0.57;;;9.40;68.80;;;;;;5051354;28;20032;-72
2022/03/30 05:38:04;;;;;;;0.52;0.52;;;9.40;69.10;;;;;;5050551;28;20021;-72
2022/03/30 05:40:30;;;;;;;0.68;0.68;;;9.40;68.90;;;;;;5049556;28;20381;-72
2022/03/30 05:42:56;;;;;;;1.00;1.00;;;9.50;69.20;;;;;;5050723;28;20348;-72
2022/03/30 05:45:21;;;;;;;5.95;0.98;;;9.60;69.60;;;;;;5047192;28;20033;-72
2022/03/30 05:47:47;;;;;;;0.30;0.30;;;9.60;68.80;;;;;;5052485;28;20036;-72
2022/03/30 05:50:13;;;;;;;0.88;0.25;;;9.80;68.50;;;;;;5054354;28;20104;-72
2022/03/30 05:52:39;;;;;;;0.20;0.20;;;9.80;68.50;;;;;;5054995;28;20028;-72
2022/03/30 05:55:05;;;;;;;0.20;0.20;;;9.80;68.80;;;;;;5054451;28;20107;-72
2022/03/30 05:57:32;;;;;;;0.40;0.40;;;9.70;69.00;;;;;;5055134;28;20132;-74
2022/03/30 05:59:58;;;;;;;1.13;1.13;;;9.60;69.20;;;;;;5054648;28;20025;-73
2022/03/30 06:02:24;;;;;;;0.30;0.30;;;9.80;69.10;;;;;;5054951;28;20346;-76
2022/03/30 06:04:50;;;;;;;0.65;0.55;;;9.80;68.40;;;;;;5054668;28;20025;-76
2022/03/30 06:07:17;;;;;;;17.92;7.05;;;10.00;68.40;;;;;;5055142;28;20405;-76
2022/03/30 06:09:42;;;;;;;0.40;0.40;;;10.10;68.60;;;;;;5054689;28;20594;-76
2022/03/30 06:12:08;;;;;;;0.43;0.43;;;9.90;70.10;;;;;;5037155;28;20108;-76
2022/03/30 06:14:35;;;;;;;0.30;0.30;;;9.70;71.90;;;;;;5053835;28;20028;-76
2022/03/30 06:17:04;;;;;;;0.28;0.28;;;9.90;70.50;;;;;;5053232;28;20048;-76
2022/03/30 06:19:32;;;;;;;0.57;0.57;;;10.00;70.20;;;;;;5036712;28;20021;-76
2022/03/30 06:21:58;;;;;;;1.10;1.02;;;10.20;69.40;;;;;;5052887;28;20076;-76
2022/03/30 06:24:24;;;;;;;1.73;1.40;;;10.30;69.20;;;;;;5054858;28;20032;-76
2022/03/30 06:26:51;;;;;;;0.35;0.35;;;10.30;69.30;;;;;;5054024;28;20103;-76
2022/03/30 06:29:17;;;;;;;4.45;1.95;;;10.30;69.40;;;;;;5036723;28;20061;-76
2022/03/30 06:31:43;;;;;;;0.20;0.20;;;10.30;69.70;;;;;;5053427;28;20063;-76
2022/03/30 06:34:08;;;;;;;2.88;1.30;;;10.40;69.80;;;;;;5054543;28;20025;-75
2022/03/30 06:36:37;;;;;;;0.20;0.20;;;10.30;69.50;;;;;;5053866;28;20051;-76
2022/03/30 06:39:04;;;;;;;0.45;0.45;;;10.40;69.90;;;;;;5054465;28;20577;-76
2022/03/30 06:41:30;;;;;;;0.32;0.32;;;10.60;70.00;;;;;;5054619;28;20431;-76
2022/03/30 06:43:56;;;;;;;0.20;0.20;;;10.70;70.10;;;;;;5054728;28;20479;-76
2022/03/30 06:46:22;;;;;;;0.30;0.30;;;10.80;69.30;;;;;;5054481;28;20100;-76
2022/03/30 06:48:48;;;;;;;1.10;1.10;;;10.80;68.90;;;;;;5055049;28;20113;-76
2022/03/30 06:51:15;;;;;;;0.20;0.20;;;10.80;68.70;;;;;;5036896;28;20454;-76
2022/03/30 06:53:42;;;;;;;0.20;0.20;;;11.10;68.40;;;;;;5036878;28;20035;-77
2022/03/30 06:56:08;;;;;;;0.28;0.28;;;11.20;67.40;;;;;;5052373;28;20338;-76
2022/03/30 06:58:35;;;;;;;0.30;0.30;;;11.00;67.20;;;;;;5053694;28;20017;-76
2022/03/30 07:01:00;;;;;;;0.20;0.20;;;11.10;67.30;;;;;;5054108;28;20120;-77
2022/03/30 07:03:28;;;;;;;0.20;0.20;;;11.10;67.20;;;;;;5024869;28;20139;-76
2022/03/30 07:05:55;;;;;;;0.20;0.20;;;11.10;66.70;;;;;;5053437;28;20032;-76
2022/03/30 07:11:05;;;;;;;0.20;0.20;;;11.20;65.60;;;;;;5053566;28;20040;-76
2022/03/30 07:13:31;;;;;;;2.00;1.90;;;11.40;65.10;;;;;;5052803;28;20029;-76
2022/03/30 07:15:57;;;;;;;0.20;0.20;;;11.50;64.70;;;;;;5052971;28;20112;-76
2022/03/30 07:18:22;;;;;;;0.20;0.20;;;11.60;64.70;;;;;;5035941;28;20029;-76
2022/03/30 07:20:48;;;;;;;0.20;0.20;;;11.70;65.40;;;;;;5053083;28;20025;-76
2022/03/30 07:23:14;;;;;;;0.30;0.30;;;11.80;65.20;;;;;;5051747;28;20025;-76
2022/03/30 07:25:40;;;;;;;0.20;0.20;;;11.90;64.20;;;;;;5040773;28;20179;-76
2022/03/30 07:28:07;;;;;;;0.20;0.20;;;11.90;63.90;;;;;;5041453;28;20131;-77
2022/03/30 07:30:33;;;;;;;0.20;0.20;;;11.80;64.10;;;;;;5042723;28;20033;-76
2022/03/30 07:32:59;;;;;;;0.20;0.20;;;11.80;64.10;;;;;;5041698;28;20443;-76
2022/03/30 07:35:27;;;;;;;0.25;0.25;;;12.00;64.20;;;;;;5042083;28;20641;-76
2022/03/30 07:37:55;;;;;;;1.40;1.25;;;11.80;64.50;;;;;;5041610;28;20028;-76
2022/03/30 07:40:22;;;;;;;0.32;0.32;;;11.80;64.90;;;;;;5023697;28;20029;-76
2022/03/30 07:42:49;;;;;;;0.20;0.20;;;11.80;65.60;;;;;;5023354;28;20036;-76
2022/03/30 07:45:15;;;;;;;0.20;0.20;;;11.80;65.60;;;;;;5040099;28;20090;-77
2022/03/30 07:47:41;;;;;;;0.20;0.20;;;11.80;65.60;;;;;;5022985;28;20068;-76
2022/03/30 07:50:08;;;;;;;0.20;0.20;;;11.80;65.30;;;;;;5023714;28;20056;-76
2022/03/30 07:52:34;;;;;;;0.17;0.17;;;11.80;65.70;;;;;;5022684;28;20527;-76
2022/03/30 07:55:00;;;;;;;0.30;0.30;;;11.90;66.10;;;;;;5041149;28;20098;-76
2022/03/30 07:57:26;;;;;;;1.00;1.00;;;11.90;65.20;;;;;;5007038;28;20489;-76
2022/03/30 07:59:56;;;;;;;0.20;0.20;;;11.80;65.60;;;;;;5022652;28;20486;-76
2022/03/30 08:02:23;;;;;;;7.32;1.73;;;11.90;65.60;;;;;;5024010;28;20633;-76
2022/03/30 08:04:49;;;;;;;0.30;0.30;;;11.80;64.70;;;;;;5041433;28;20047;-76
2022/03/30 08:07:15;;;;;;;1.02;1.00;;;11.80;65.60;;;;;;5040247;28;20033;-76
2022/03/30 08:09:42;;;;;;;0.30;0.30;;;11.70;65.40;;;;;;5022560;28;20037;-76
2022/03/30 08:12:10;;;;;;;0.20;0.20;;;11.80;65.10;;;;;;5040678;28;20055;-72
2022/03/30 08:14:36;;;;;;;0.30;0.30;;;11.90;65.00;;;;;;5039876;28;21032;-72
2022/03/30 08:17:01;;;;;;;0.55;0.55;;;12.10;64.90;;;;;;5039710;28;20499;-73
2022/03/30 08:19:27;;;;;;;0.20;0.20;;;12.10;64.90;;;;;;5040906;28;20025;-73
2022/03/30 08:24:39;;;;;;;0.20;0.20;;;12.10;65.70;;;;;;5039802;28;20033;-72
2022/03/30 08:27:05;;;;;;;0.20;0.20;;;12.20;65.20;;;;;;5040368;28;20039;-72
2022/03/30 08:29:31;;;;;;;2.28;1.30;;;12.30;65.20;;;;;;5022628;28;20488;-73
2022/03/30 08:31:57;;;;;;;2.45;2.28;;;12.40;64.60;;;;;;5040618;28;20041;-72
2022/03/30 08:34:25;;;;;;;0.30;0.30;;;12.40;64.40;;;;;;5040858;28;20024;-73
2022/03/30 08:36:51;;;;;;;0.20;0.20;;;12.50;64.80;;;;;;5040477;28;20039;-72
2022/03/30 08:39:18;;;;;;;0.20;0.20;;;12.50;64.80;;;;;;5022762;28;20480;-72
2022/03/30 08:41:45;;;;;;;0.20;0.20;;;12.70;64.30;;;;;;5041265;28;20741;-72
2022/03/30 08:44:14;;;;;;;1.23;1.13;;;12.90;64.20;;;;;;5040973;28;20049;-72
2022/03/30 08:46:41;;;;;;;0.20;0.20;;;12.90;63.70;;;;;;5022855;28;20037;-72
2022/03/30 08:49:08;;;;;;;0.65;0.57;;;12.60;64.60;;;;;;5022909;28;20083;-72
2022/03/30 08:51:38;;;;;;;0.20;0.20;;;12.60;65.30;;;;;;5041890;28;20032;-72
2022/03/30 08:54:05;;;;;;;0.20;0.20;;;12.50;65.70;;;;;;5041948;28;20047;-73
2022/03/30 08:56:31;;;;;;;1.55;0.35;;;12.70;65.70;;;;;;5042722;28;20047;-74
2022/03/30 08:59:04;;;;;;;2.58;2.47;;;12.60;65.20;;;;;;5041511;28;20487;-75
2022/03/30 09:01:34;;;;;;;0.52;0.52;;;12.50;66.00;;;;;;5040532;28;20021;-75
2022/03/30 09:04:03;;;;;;;0.52;0.52;;;12.60;66.10;;;;;;5021895;28;20025;-75
2022/03/30 09:06:36;;;;;;;0.20;0.20;;;12.70;65.30;;;;;;5040265;28;20170;-75
2022/03/30 09:09:03;;;;;;;0.40;0.40;;;12.70;65.20;;;;;;5039877;28;20451;-75
2022/03/30 09:11:36;;;;;;;5.07;0.50;;;12.70;64.90;;;;;;5022287;28;20120;-75
2022/03/30 09:14:05;;;;;;;3.28;1.25;;;12.50;65.20;;;;;;5022360;28;20068;-75
2022/03/30 09:16:46;;;;;;;0.20;0.20;;;12.60;65.80;;;;;;5021781;28;20061;-75
2022/03/30 09:19:14;;;;;;;0.40;0.40;;;12.70;65.60;;;;;;5040231;28;20083;-75
2022/03/30 09:21:59;;;;;;;2.38;2.17;;;12.70;65.40;;;;;;5038771;28;20021;-75
2022/03/30 09:24:33;;;;;;;0.20;0.20;;;12.70;65.40;;;;;;5025523;28;20094;-75
2022/03/30 09:27:00;;;;;;;0.20;0.20;;;12.90;65.10;;;;;;5010030;28;20036;-75
2022/03/30 09:29:28;;;;;;;0.65;0.65;;;13.00;64.90;;;;;;5043937;28;20497;-75
2022/03/30 09:31:55;;;;;;;0.30;0.30;;;12.90;64.90;;;;;;5044404;28;20113;-75
2022/03/30 09:34:21;;;;;;;0.20;0.20;;;12.70;65.50;;;;;;5043658;28;20037;-75
2022/03/30 09:36:50;;;;;;;0.68;0.68;;;12.70;66.00;;;;;;5025839;28;20029;-75
2022/03/30 09:39:36;;;;;;;2.20;2.08;;;12.60;66.10;;;;;;5025839;28;20029;-75
2022/03/30 09:42:05;;;;;;;17.95;5.65;;;12.80;67.00;;;;;;5025856;28;20032;-75
2022/03/30 09:44:48;;;;;;;1.60;1.20;;;12.90;66.90;;;;;;5043302;28;20029;-75
2022/03/30 09:47:14;;;;;;;0.30;0.30;;;12.90;66.30;;;;;;5026747;28;20033;-75
2022/03/30 09:49:54;;;;;;;0.93;0.93;;;12.90;67.00;;;;;;5008355;28;20082;-75
2022/03/30 09:52:26;;;;;;;0.93;0.93;;;12.90;67.60;;;;;;5009344;28;20033;-75
2022/03/30 09:54:57;;;;;;;0.20;0.20;;;12.90;67.30;;;;;;5008896;28;20036;-75
2022/03/30 09:57:25;;;;;;;0.20;0.20;;;12.80;67.90;;;;;;5044005;28;20033;-75
2022/03/30 09:59:59;;;;;;;0.20;0.20;;;13.00;68.10;;;;;;5025612;28;20126;-75
2022/03/30 10:02:27;;;;;;;4.05;1.58;;;13.10;67.50;;;;;;5034709;28;20029;-75
2022/03/30 10:04:54;;;;;;;0.82;0.82;;;13.10;66.80;;;;;;5042321;28;20614;-75
2022/03/30 10:07:21;;;;;;;0.20;0.20;;;13.10;67.10;;;;;;5025239;28;20032;-75
2022/03/30 10:09:48;;;;;;;0.43;0.43;;;13.10;67.20;;;;;;5043193;28;20137;-75
2022/03/30 10:12:17;;;;;;;0.30;0.30;;;13.20;67.40;;;;;;5043205;28;20049;-75
2022/03/30 10:14:47;;;;;;;0.20;0.20;;;13.20;66.50;;;;;;5042726;28;20039;-75
2022/03/30 10:17:13;;;;;;;0.20;0.20;;;13.20;66.70;;;;;;5009257;28;20519;-75
2022/03/30 10:19:44;;;;;;;0.40;0.40;;;13.20;67.00;;;;;;5024812;28;20036;-75
2022/03/30 10:22:35;;;;;;;1.95;1.85;;;13.30;66.50;;;;;;5025613;28;20036;-75
2022/03/30 10:25:26;;;;;;;0.10;0.10;;;13.40;66.30;;;;;;4980575;28;20041;-75
2022/03/30 10:28:22;;;;;;;0.20;0.20;;;13.40;65.70;;;;;;5024840;28;20044;-75
2022/03/30 10:30:53;;;;;;;11.40;3.33;;;13.40;65.70;;;;;;5041933;28;20373;-76
2022/03/30 10:33:33;;;;;;;0.30;0.30;;;13.40;65.70;;;;;;5042633;28;20500;-75
2022/03/30 10:36:23;;;;;;;0.20;0.20;;;13.60;65.90;;;;;;5041786;28;20047;-75
2022/03/30 10:39:08;;;;;;;1.05;0.98;;;13.40;66.30;;;;;;5042923;28;20423;-75
2022/03/30 10:42:08;;;;;;;1.05;0.95;;;13.40;66.70;;;;;;5041600;28;20033;-75
2022/03/30 10:44:46;;;;;;;0.20;0.20;;;13.30;66.50;;;;;;4986261;28;20091;-75
2022/03/30 10:47:23;;;;;;;0.30;0.30;;;13.40;67.50;;;;;;5040697;28;20064;-75
2022/03/30 10:49:58;;;;;;;3.80;0.82;;;13.60;66.70;;;;;;5006923;28;20116;-75
2022/03/30 10:52:44;;;;;;;0.98;0.98;;;13.50;66.20;;;;;;5007677;28;20108;-75
2022/03/30 10:55:13;;;;;;;2.30;1.17;;;13.40;66.30;;;;;;5042457;28;20037;-75
2022/03/30 10:57:58;;;;;;;0.20;0.20;;;13.30;66.20;;;;;;5024098;28;20095;-75
2022/03/30 11:00:27;;;;;;;0.50;0.50;;;13.30;67.80;;;;;;5041583;28;20151;-75
2022/03/30 11:03:16;;;;;;;0.40;0.40;;;13.60;67.40;;;;;;5024124;28;20134;-75
2022/03/30 11:06:02;;;;;;;0.47;0.47;;;13.70;66.10;;;;;;5024418;28;20025;-75
2022/03/30 11:08:33;;;;;;;0.20;0.20;;;13.50;67.30;;;;;;5042529;28;20887;-75
2022/03/30 11:11:28;;;;;;;0.22;0.22;;;13.70;66.80;;;;;;5042125;28;20059;-75
2022/03/30 11:14:23;;;;;;;0.30;0.30;;;13.70;66.60;;;;;;5024298;28;20562;-75
2022/03/30 11:16:50;;;;;;;1.48;0.93;;;13.70;65.70;;;;;;5023651;28;20033;-76
2022/03/30 11:19:16;;;;;;;0.20;0.20;;;13.90;65.60;;;;;;5041830;28;20108;-75
2022/03/30 11:22:23;;;;;;;2.40;1.52;;;13.70;65.90;;;;;;5023389;28;20476;-75
2022/03/30 11:25:07;;;;;;;1.05;0.65;;;13.70;65.90;;;;;;4968234;28;20048;-75
2022/03/30 11:27:34;;;;;;;16.35;2.78;;;13.70;66.30;;;;;;5023649;28;20035;-75
2022/03/30 11:30:13;;;;;;;0.85;0.65;;;13.50;66.60;;;;;;5006821;28;20091;-75
2022/03/30 11:32:40;;;;;;;7.50;3.67;;;13.50;66.90;;;;;;5041369;28;20090;-75
2022/03/30 11:35:11;;;;;;;0.10;0.10;;;13.20;67.40;;;;;;5041563;28;20033;-75
2022/03/30 11:37:43;;;;;;;0.20;0.20;;;13.00;70.30;;;;;;5041475;28;20447;-75
2022/03/30 11:40:10;;;;;;;0.20;0.20;;;13.10;69.10;;;;;;5022871;28;20278;-75
2022/03/30 11:42:40;;;;;;;1.65;0.30;;;13.20;69.60;;;;;;5043029;28;20381;-75
2022/03/30 11:45:14;;;;;;;0.70;0.70;;;13.50;68.40;;;;;;5041997;28;20044;-75
2022/03/30 11:47:49;;;;;;;0.20;0.20;;;13.70;68.70;;;;;;5025087;28;20148;-75
2022/03/30 11:50:25;;;;;;;2.63;0.55;;;13.60;68.40;;;;;;5026702;28;20033;-72
2022/03/30 11:53:00;;;;;;;2.55;0.50;;;13.60;69.00;;;;;;5043373;28;20056;-71
2022/03/30 11:55:28;;;;;;;0.20;0.20;;;13.60;69.70;;;;;;5041070;28;20098;-71
2022/03/30 11:57:56;;;;;;;0.10;0.10;;;13.60;70.10;;;;;;5041352;28;20033;-71
2022/03/30 12:00:23;;;;;;;0.20;0.20;;;13.80;70.20;;;;;;5021988;28;20454;-71
2022/03/30 12:02:50;;;;;;;0.50;0.50;;;13.90;69.50;;;;;;5041127;28;20025;-73
2022/03/30 12:05:16;;;;;;;0.20;0.20;;;13.90;69.90;;;;;;5040855;28;20475;-71
2022/03/30 12:07:42;;;;;;;0.35;0.35;;;14.00;69.60;;;;;;5022180;28;20823;-71
2022/03/30 12:10:13;;;;;;;2.13;2.03;;;14.00;69.80;;;;;;5041222;28;20036;-71
2022/03/30 12:12:40;;;;;;;0.43;0.43;;;13.90;70.70;;;;;;5041238;28;20442;-71
2022/03/30 12:15:09;;;;;;;2.33;2.15;;;13.80;71.40;;;;;;5022613;28;20388;-71
2022/03/30 12:17:36;;;;;;;0.20;0.20;;;13.60;72.40;;;;;;5039977;28;20040;-71
2022/03/30 12:20:08;;;;;;;0.20;0.20;;;13.40;71.70;;;;;;5023058;28;20025;-71
2022/03/30 12:22:35;;;;;;;0.40;0.40;;;13.40;71.70;;;;;;5040882;28;20090;-71
2022/03/30 12:25:01;;;;;;;0.20;0.20;;;13.50;71.40;;;;;;5040091;28;20033;-71
2022/03/30 12:27:27;;;;;;;0.10;0.10;;;13.60;71.80;;;;;;5040126;28;20044;-71
2022/03/30 12:29:56;;;;;;;9.40;2.10;;;13.70;71.60;;;;;;5040753;28;20378;-71
2022/03/30 12:32:24;;;;;;;0.77;0.77;;;13.70;71.30;;;;;;5022751;28;20041;-71
2022/03/30 12:35:12;;;;;;;0.20;0.20;;;13.80;70.80;;;;;;5040788;28;20357;-71
2022/03/30 12:37:41;;;;;;;0.30;0.30;;;13.60;71.60;;;;;;5022215;28;20507;-71
2022/03/30 12:40:16;;;;;;;0.10;0.10;;;13.70;71.80;;;;;;5040396;28;20432;-71
2022/03/30 12:42:44;;;;;;;0.43;0.43;;;13.60;71.40;;;;;;5041039;28;20028;-72
2022/03/30 12:45:15;;;;;;;0.20;0.20;;;13.70;70.80;;;;;;5041298;28;20369;-71
2022/03/30 12:47:55;;;;;;;4.95;2.45;;;13.70;71.30;;;;;;5007615;28;20052;-71
2022/03/30 12:50:33;;;;;;;0.20;0.20;;;13.70;70.50;;;;;;5041396;28;20441;-72
2022/03/30 12:53:06;;;;;;;0.28;0.28;;;13.50;73.60;;;;;;5040748;28;20037;-71
2022/03/30 12:55:36;;;;;;;6.38;5.90;;;13.50;74.20;;;;;;5040393;28;20040;-71
2022/03/30 12:58:13;;;;;;;0.20;0.20;;;13.60;75.10;;;;;;5040187;28;20028;-73
2022/03/30 13:00:40;;;;;;;0.20;0.20;;;13.60;73.20;;;;;;5053894;22;20055;-72
2022/03/30 13:03:07;;;;;;;0.10;0.10;;;13.50;74.10;;;;;;5025218;28;20040;-71
2022/03/30 13:05:34;;;;;;;0.20;0.20;;;13.60;74.20;;;;;;5043211;28;20112;-71